sensor_id;sensor_type;location;lat;lon;timestamp;temperature;humidity
16511;DHT22;8368;48.772;8.754;2023-03-02T00:01:04;-0.70;99.90
16511;DHT22;8368;48.772;8.754;2023-03-02T00:03:34;-0.70;99.90
16511;DHT22;8368;48.772;8.754;2023-03-02T00:06:00;-0.80;99.90
16511;DHT22;8368;48.772;8.754;2023-03-02T00:08:26;-0.80;99.90
16511;DHT22;8368;48.772;8.754;2023-03-02T00:10:52;-0.70;99.90
16511;DHT22;8368;48.772;8.754;2023-03-02T00:13:19;-0.70;99.90
16511;DHT22;8368;48.772;8.754;2023-03-02T00:15:44;-0.70;99.90
16511;DHT22;8368;48.772;8.754;2023-03-02T00:18:10;-0.60;99.90
16511;DHT22;8368;48.772;8.754;2023-03-02T00:20:35;-0.60;99.90
16511;DHT22;8368;48.772;8.754;2023-03-02T00:23:01;-0.70;99.90
16511;DHT22;8368;48.772;8.754;2023-03-02T00:25:26;-0.70;99.90
16511;DHT22;8368;48.772;8.754;2023-03-02T00:27:53;-0.80;99.90
16511;DHT22;8368;48.772;8.754;2023-03-02T00:30:18;-0.80;99.90
16511;DHT22;8368;48.772;8.754;2023-03-02T00:32:44;-0.80;99.90
16511;DHT22;8368;48.772;8.754;2023-03-02T00:35:10;-0.80;99.90
16511;DHT22;8368;48.772;8.754;2023-03-02T00:37:36;-0.80;99.90
16511;DHT22;8368;48.772;8.754;2023-03-02T00:40:03;-0.90;99.90
16511;DHT22;8368;48.772;8.754;2023-03-02T00:42:31;-0.90;99.90
16511;DHT22;8368;48.772;8.754;2023-03-02T00:44:56;-0.90;99.90
16511;DHT22;8368;48.772;8.754;2023-03-02T00:47:23;-0.90;99.90
16511;DHT22;8368;48.772;8.754;2023-03-02T00:49:49;-1.00;99.90
16511;DHT22;8368;48.772;8.754;2023-03-02T00:52:15;-1.00;99.90
16511;DHT22;8368;48.772;8.754;2023-03-02T00:54:41;-1.00;99.90
16511;DHT22;8368;48.772;8.754;2023-03-02T00:57:07;-1.00;99.90
16511;DHT22;8368;48.772;8.754;2023-03-02T00:59:33;-1.10;99.90
16511;DHT22;8368;48.772;8.754;2023-03-02T01:02:01;-1.10;99.90
16511;DHT22;8368;48.772;8.754;2023-03-02T01:04:38;-1.10;99.90
16511;DHT22;8368;48.772;8.754;2023-03-02T01:07:06;-1.10;99.90
16511;DHT22;8368;48.772;8.754;2023-03-02T01:09:32;-1.20;99.90
16511;DHT22;8368;48.772;8.754;2023-03-02T01:11:58;-1.20;99.90
16511;DHT22;8368;48.772;8.754;2023-03-02T01:14:24;-1.20;99.90
16511;DHT22;8368;48.772;8.754;2023-03-02T01:16:50;-1.20;99.90
16511;DHT22;8368;48.772;8.754;2023-03-02T01:19:16;-1.20;99.90
16511;DHT22;8368;48.772;8.754;2023-03-02T01:21:42;-1.20;99.90
16511;DHT22;8368;48.772;8.754;2023-03-02T01:24:08;-1.20;99.90
16511;DHT22;8368;48.772;8.754;2023-03-02T01:26:34;-1.30;99.90
16511;DHT22;8368;48.772;8.754;2023-03-02T01:29:00;-1.30;99.90
16511;DHT22;8368;48.772;8.754;2023-03-02T01:31:27;-1.30;99.90
16511;DHT22;8368;48.772;8.754;2023-03-02T01:33:53;-1.30;99.90
16511;DHT22;8368;48.772;8.754;2023-03-02T01:36:19;-1.30;99.90
16511;DHT22;8368;48.772;8.754;2023-03-02T01:38:45;-1.30;99.90
16511;DHT22;8368;48.772;8.754;2023-03-02T01:41:10;-1.30;99.90
16511;DHT22;8368;48.772;8.754;2023-03-02T01:43:36;-1.30;99.90
16511;DHT22;8368;48.772;8.754;2023-03-02T01:46:14;-1.30;99.90
16511;DHT22;8368;48.772;8.754;2023-03-02T01:48:47;-1.30;99.90
16511;DHT22;8368;48.772;8.754;2023-03-02T01:51:16;-1.30;99.90
16511;DHT22;8368;48.772;8.754;2023-03-02T01:53:44;-1.30;99.90
16511;DHT22;8368;48.772;8.754;2023-03-02T01:56:23;-1.30;99.90
16511;DHT22;8368;48.772;8.754;2023-03-02T01:58:53;-1.40;99.90
16511;DHT22;8368;48.772;8.754;2023-03-02T02:01:20;-1.40;99.90
16511;DHT22;8368;48.772;8.754;2023-03-02T02:03:49;-1.40;99.90
16511;DHT22;8368;48.772;8.754;2023-03-02T02:06:36;-1.50;99.90
16511;DHT22;8368;48.772;8.754;2023-03-02T02:09:03;-1.50;99.90
16511;DHT22;8368;48.772;8.754;2023-03-02T02:11:32;-1.50;99.90
16511;DHT22;8368;48.772;8.754;2023-03-02T02:13:59;-1.50;99.90
16511;DHT22;8368;48.772;8.754;2023-03-02T02:16:27;-1.50;99.90
16511;DHT22;8368;48.772;8.754;2023-03-02T02:18:54;-1.50;99.90
16511;DHT22;8368;48.772;8.754;2023-03-02T02:21:21;-1.50;99.90
16511;DHT22;8368;48.772;8.754;2023-03-02T02:26:25;-1.50;99.90
16511;DHT22;8368;48.772;8.754;2023-03-02T02:29:04;-1.50;99.90
16511;DHT22;8368;48.772;8.754;2023-03-02T02:34:33;-1.40;99.90
16511;DHT22;8368;48.772;8.754;2023-03-02T02:37:22;-1.40;99.90
16511;DHT22;8368;48.772;8.754;2023-03-02T02:39:49;-1.40;99.90
16511;DHT22;8368;48.772;8.754;2023-03-02T02:42:19;-1.40;99.90
16511;DHT22;8368;48.772;8.754;2023-03-02T02:44:46;-1.50;99.90
16511;DHT22;8368;48.772;8.754;2023-03-02T02:47:18;-1.50;99.90
16511;DHT22;8368;48.772;8.754;2023-03-02T02:49:45;-1.50;99.90
16511;DHT22;8368;48.772;8.754;2023-03-02T02:52:15;-1.50;99.90
16511;DHT22;8368;48.772;8.754;2023-03-02T02:54:47;-1.50;99.90
16511;DHT22;8368;48.772;8.754;2023-03-02T02:57:14;-1.60;99.90
16511;DHT22;8368;48.772;8.754;2023-03-02T02:59:50;-1.60;99.90
16511;DHT22;8368;48.772;8.754;2023-03-02T03:02:22;-1.60;99.90
16511;DHT22;8368;48.772;8.754;2023-03-02T03:04:48;-1.60;99.90
16511;DHT22;8368;48.772;8.754;2023-03-02T03:07:23;-1.60;99.90
16511;DHT22;8368;48.772;8.754;2023-03-02T03:10:00;-1.60;99.90
16511;DHT22;8368;48.772;8.754;2023-03-02T03:12:28;-1.70;99.90
16511;DHT22;8368;48.772;8.754;2023-03-02T03:14:56;-1.70;99.90
16511;DHT22;8368;48.772;8.754;2023-03-02T03:17:22;-1.70;99.90
16511;DHT22;8368;48.772;8.754;2023-03-02T03:19:48;-1.70;99.90
16511;DHT22;8368;48.772;8.754;2023-03-02T03:22:15;-1.70;99.90
16511;DHT22;8368;48.772;8.754;2023-03-02T03:24:42;-1.70;99.90
16511;DHT22;8368;48.772;8.754;2023-03-02T03:27:10;-1.70;99.90
16511;DHT22;8368;48.772;8.754;2023-03-02T03:29:39;-1.70;99.90
16511;DHT22;8368;48.772;8.754;2023-03-02T03:32:05;-1.70;99.90
16511;DHT22;8368;48.772;8.754;2023-03-02T03:34:33;-1.70;99.90
16511;DHT22;8368;48.772;8.754;2023-03-02T03:36:59;-1.70;99.90
16511;DHT22;8368;48.772;8.754;2023-03-02T03:39:28;-1.70;99.90
16511;DHT22;8368;48.772;8.754;2023-03-02T03:41:54;-1.70;99.90
16511;DHT22;8368;48.772;8.754;2023-03-02T03:44:19;-1.70;99.90
16511;DHT22;8368;48.772;8.754;2023-03-02T03:46:45;-1.70;99.90
16511;DHT22;8368;48.772;8.754;2023-03-02T03:49:10;-1.60;99.90
16511;DHT22;8368;48.772;8.754;2023-03-02T03:51:36;-1.70;99.90
16511;DHT22;8368;48.772;8.754;2023-03-02T03:54:03;-1.70;99.90
16511;DHT22;8368;48.772;8.754;2023-03-02T03:56:32;-1.60;99.90
16511;DHT22;8368;48.772;8.754;2023-03-02T03:58:59;-1.60;99.90
16511;DHT22;8368;48.772;8.754;2023-03-02T04:01:37;-1.60;99.90
16511;DHT22;8368;48.772;8.754;2023-03-02T04:04:04;-1.60;99.90
16511;DHT22;8368;48.772;8.754;2023-03-02T04:06:30;-1.70;99.90
16511;DHT22;8368;48.772;8.754;2023-03-02T04:08:56;-1.80;99.90
16511;DHT22;8368;48.772;8.754;2023-03-02T04:11:22;-1.80;99.90
16511;DHT22;8368;48.772;8.754;2023-03-02T04:13:47;-1.80;99.90
16511;DHT22;8368;48.772;8.754;2023-03-02T04:16:14;-1.80;99.90
16511;DHT22;8368;48.772;8.754;2023-03-02T04:18:40;-1.80;99.90
16511;DHT22;8368;48.772;8.754;2023-03-02T04:21:07;-1.80;99.90
16511;DHT22;8368;48.772;8.754;2023-03-02T04:23:33;-1.80;99.90
16511;DHT22;8368;48.772;8.754;2023-03-02T04:25:58;-1.80;99.90
16511;DHT22;8368;48.772;8.754;2023-03-02T04:28:30;-1.80;99.90
16511;DHT22;8368;48.772;8.754;2023-03-02T04:30:55;-1.80;99.90
16511;DHT22;8368;48.772;8.754;2023-03-02T04:33:21;-1.80;99.90
16511;DHT22;8368;48.772;8.754;2023-03-02T04:35:46;-1.90;99.90
16511;DHT22;8368;48.772;8.754;2023-03-02T04:38:12;-1.90;99.90
16511;DHT22;8368;48.772;8.754;2023-03-02T04:40:37;-2.00;99.90
16511;DHT22;8368;48.772;8.754;2023-03-02T04:43:03;-2.00;99.90
16511;DHT22;8368;48.772;8.754;2023-03-02T04:45:28;-2.00;99.90
16511;DHT22;8368;48.772;8.754;2023-03-02T04:47:54;-2.00;99.90
16511;DHT22;8368;48.772;8.754;2023-03-02T04:50:20;-2.10;99.90
16511;DHT22;8368;48.772;8.754;2023-03-02T04:52:45;-2.10;99.90
16511;DHT22;8368;48.772;8.754;2023-03-02T04:55:18;-2.10;99.90
16511;DHT22;8368;48.772;8.754;2023-03-02T04:57:44;-2.10;99.90
16511;DHT22;8368;48.772;8.754;2023-03-02T05:00:10;-2.10;99.90
16511;DHT22;8368;48.772;8.754;2023-03-02T05:02:37;-2.10;99.90
16511;DHT22;8368;48.772;8.754;2023-03-02T05:05:03;-2.10;99.90
16511;DHT22;8368;48.772;8.754;2023-03-02T05:07:29;-2.10;99.90
16511;DHT22;8368;48.772;8.754;2023-03-02T05:09:54;-2.10;99.90
16511;DHT22;8368;48.772;8.754;2023-03-02T05:12:20;-2.10;99.90
16511;DHT22;8368;48.772;8.754;2023-03-02T05:14:46;-2.20;99.90
16511;DHT22;8368;48.772;8.754;2023-03-02T05:17:11;-2.20;99.90
16511;DHT22;8368;48.772;8.754;2023-03-02T05:19:37;-2.20;99.90
16511;DHT22;8368;48.772;8.754;2023-03-02T05:22:03;-2.20;99.90
16511;DHT22;8368;48.772;8.754;2023-03-02T05:24:28;-2.20;99.90
16511;DHT22;8368;48.772;8.754;2023-03-02T05:26:54;-2.20;99.90
16511;DHT22;8368;48.772;8.754;2023-03-02T05:29:19;-2.30;99.90
16511;DHT22;8368;48.772;8.754;2023-03-02T05:31:47;-2.30;99.90
16511;DHT22;8368;48.772;8.754;2023-03-02T05:34:14;-2.30;99.90
16511;DHT22;8368;48.772;8.754;2023-03-02T05:36:41;-2.30;99.90
16511;DHT22;8368;48.772;8.754;2023-03-02T05:39:08;-2.40;99.90
16511;DHT22;8368;48.772;8.754;2023-03-02T05:41:35;-2.30;99.90
16511;DHT22;8368;48.772;8.754;2023-03-02T05:44:01;-2.30;99.90
16511;DHT22;8368;48.772;8.754;2023-03-02T05:46:27;-2.30;99.90
16511;DHT22;8368;48.772;8.754;2023-03-02T05:48:53;-2.20;99.90
16511;DHT22;8368;48.772;8.754;2023-03-02T05:51:18;-2.20;99.90
16511;DHT22;8368;48.772;8.754;2023-03-02T05:53:44;-2.10;99.90
16511;DHT22;8368;48.772;8.754;2023-03-02T05:56:10;-2.10;99.90
16511;DHT22;8368;48.772;8.754;2023-03-02T05:58:35;-2.10;99.90
16511;DHT22;8368;48.772;8.754;2023-03-02T06:01:01;-2.10;99.90
16511;DHT22;8368;48.772;8.754;2023-03-02T06:03:26;-2.00;99.90
16511;DHT22;8368;48.772;8.754;2023-03-02T06:05:52;-2.00;99.90
16511;DHT22;8368;48.772;8.754;2023-03-02T06:08:20;-2.00;99.90
16511;DHT22;8368;48.772;8.754;2023-03-02T06:10:46;-2.00;99.90
16511;DHT22;8368;48.772;8.754;2023-03-02T06:13:11;-1.90;99.90
16511;DHT22;8368;48.772;8.754;2023-03-02T06:15:37;-1.80;99.90
16511;DHT22;8368;48.772;8.754;2023-03-02T06:18:05;-1.80;99.90
16511;DHT22;8368;48.772;8.754;2023-03-02T06:20:30;-1.80;99.90
16511;DHT22;8368;48.772;8.754;2023-03-02T06:22:56;-1.70;99.90
16511;DHT22;8368;48.772;8.754;2023-03-02T06:25:22;-1.70;99.90
16511;DHT22;8368;48.772;8.754;2023-03-02T06:27:49;-1.60;99.90
16511;DHT22;8368;48.772;8.754;2023-03-02T06:30:20;-1.60;99.90
16511;DHT22;8368;48.772;8.754;2023-03-02T06:32:46;-1.50;99.90
16511;DHT22;8368;48.772;8.754;2023-03-02T06:35:12;-1.50;99.90
16511;DHT22;8368;48.772;8.754;2023-03-02T06:37:38;-1.40;99.90
16511;DHT22;8368;48.772;8.754;2023-03-02T06:40:05;-1.30;99.90
16511;DHT22;8368;48.772;8.754;2023-03-02T06:42:38;-1.20;99.90
16511;DHT22;8368;48.772;8.754;2023-03-02T06:45:05;-1.20;99.90
16511;DHT22;8368;48.772;8.754;2023-03-02T06:47:31;-1.10;99.90
16511;DHT22;8368;48.772;8.754;2023-03-02T06:49:57;-1.00;99.90
16511;DHT22;8368;48.772;8.754;2023-03-02T06:52:23;-1.00;99.90
16511;DHT22;8368;48.772;8.754;2023-03-02T06:54:49;-0.90;99.90
16511;DHT22;8368;48.772;8.754;2023-03-02T06:57:14;-0.90;99.90
16511;DHT22;8368;48.772;8.754;2023-03-02T06:59:40;-0.90;99.90
16511;DHT22;8368;48.772;8.754;2023-03-02T07:02:05;-0.80;99.90
16511;DHT22;8368;48.772;8.754;2023-03-02T07:04:31;-0.70;99.90
16511;DHT22;8368;48.772;8.754;2023-03-02T07:06:57;-0.60;99.90
16511;DHT22;8368;48.772;8.754;2023-03-02T07:09:22;-0.60;99.90
16511;DHT22;8368;48.772;8.754;2023-03-02T07:11:48;-0.50;99.90
16511;DHT22;8368;48.772;8.754;2023-03-02T07:14:14;-0.50;99.90
16511;DHT22;8368;48.772;8.754;2023-03-02T07:16:39;-0.40;99.90
16511;DHT22;8368;48.772;8.754;2023-03-02T07:19:05;-0.40;99.90
16511;DHT22;8368;48.772;8.754;2023-03-02T07:21:30;-0.20;99.90
16511;DHT22;8368;48.772;8.754;2023-03-02T07:23:56;-0.20;99.90
16511;DHT22;8368;48.772;8.754;2023-03-02T07:26:21;-0.10;99.90
16511;DHT22;8368;48.772;8.754;2023-03-02T07:28:47;-0.10;99.90
16511;DHT22;8368;48.772;8.754;2023-03-02T07:31:13;-0.10;99.90
16511;DHT22;8368;48.772;8.754;2023-03-02T07:33:38;-0.10;99.90
16511;DHT22;8368;48.772;8.754;2023-03-02T07:36:06;0.00;99.90
16511;DHT22;8368;48.772;8.754;2023-03-02T07:38:32;0.00;99.90
16511;DHT22;8368;48.772;8.754;2023-03-02T07:40:57;0.10;99.90
16511;DHT22;8368;48.772;8.754;2023-03-02T07:43:23;0.20;99.90
16511;DHT22;8368;48.772;8.754;2023-03-02T07:45:50;0.20;99.90
16511;DHT22;8368;48.772;8.754;2023-03-02T07:48:16;0.30;99.90
16511;DHT22;8368;48.772;8.754;2023-03-02T07:50:41;0.30;99.90
16511;DHT22;8368;48.772;8.754;2023-03-02T07:53:07;0.40;99.90
16511;DHT22;8368;48.772;8.754;2023-03-02T07:55:32;0.50;99.90
16511;DHT22;8368;48.772;8.754;2023-03-02T07:57:58;0.50;99.90
16511;DHT22;8368;48.772;8.754;2023-03-02T08:00:24;0.50;99.90
16511;DHT22;8368;48.772;8.754;2023-03-02T08:02:49;0.50;99.90
16511;DHT22;8368;48.772;8.754;2023-03-02T08:05:15;0.60;99.90
16511;DHT22;8368;48.772;8.754;2023-03-02T08:07:41;0.60;99.90
16511;DHT22;8368;48.772;8.754;2023-03-02T08:10:07;0.60;99.90
16511;DHT22;8368;48.772;8.754;2023-03-02T08:12:33;0.50;99.90
16511;DHT22;8368;48.772;8.754;2023-03-02T08:14:59;0.60;99.90
16511;DHT22;8368;48.772;8.754;2023-03-02T08:17:24;0.50;99.90
16511;DHT22;8368;48.772;8.754;2023-03-02T08:19:50;0.50;99.90
16511;DHT22;8368;48.772;8.754;2023-03-02T08:22:15;0.60;99.90
16511;DHT22;8368;48.772;8.754;2023-03-02T08:24:41;0.50;99.90
16511;DHT22;8368;48.772;8.754;2023-03-02T08:27:09;0.60;99.90
16511;DHT22;8368;48.772;8.754;2023-03-02T08:29:36;0.60;99.90
16511;DHT22;8368;48.772;8.754;2023-03-02T08:32:01;0.60;99.90
16511;DHT22;8368;48.772;8.754;2023-03-02T08:34:27;0.60;99.90
16511;DHT22;8368;48.772;8.754;2023-03-02T08:36:53;0.70;99.90
16511;DHT22;8368;48.772;8.754;2023-03-02T08:39:19;0.70;99.90
16511;DHT22;8368;48.772;8.754;2023-03-02T08:41:51;0.80;99.90
16511;DHT22;8368;48.772;8.754;2023-03-02T08:44:17;1.00;99.90
16511;DHT22;8368;48.772;8.754;2023-03-02T08:46:45;1.20;99.90
16511;DHT22;8368;48.772;8.754;2023-03-02T08:49:10;1.20;99.90
16511;DHT22;8368;48.772;8.754;2023-03-02T08:51:36;1.30;99.90
16511;DHT22;8368;48.772;8.754;2023-03-02T08:54:01;1.40;99.90
16511;DHT22;8368;48.772;8.754;2023-03-02T08:56:29;1.50;99.90
16511;DHT22;8368;48.772;8.754;2023-03-02T08:58:58;1.60;99.90
16511;DHT22;8368;48.772;8.754;2023-03-02T09:01:26;1.70;99.90
16511;DHT22;8368;48.772;8.754;2023-03-02T09:03:54;1.70;99.90
16511;DHT22;8368;48.772;8.754;2023-03-02T09:06:19;1.60;99.90
16511;DHT22;8368;48.772;8.754;2023-03-02T09:08:46;1.80;99.90
16511;DHT22;8368;48.772;8.754;2023-03-02T09:11:12;1.80;99.90
16511;DHT22;8368;48.772;8.754;2023-03-02T09:13:38;1.90;99.90
16511;DHT22;8368;48.772;8.754;2023-03-02T09:16:04;2.00;99.90
16511;DHT22;8368;48.772;8.754;2023-03-02T09:18:30;2.20;99.90
16511;DHT22;8368;48.772;8.754;2023-03-02T09:20:57;2.30;99.90
16511;DHT22;8368;48.772;8.754;2023-03-02T09:23:23;2.40;99.90
16511;DHT22;8368;48.772;8.754;2023-03-02T09:25:49;2.60;99.90
16511;DHT22;8368;48.772;8.754;2023-03-02T09:28:15;2.70;99.90
16511;DHT22;8368;48.772;8.754;2023-03-02T09:30:46;2.80;99.90
16511;DHT22;8368;48.772;8.754;2023-03-02T09:33:12;2.80;99.90
16511;DHT22;8368;48.772;8.754;2023-03-02T09:35:37;3.00;99.90
16511;DHT22;8368;48.772;8.754;2023-03-02T09:38:03;3.10;99.90
16511;DHT22;8368;48.772;8.754;2023-03-02T09:40:29;3.10;99.90
16511;DHT22;8368;48.772;8.754;2023-03-02T09:51:35;3.30;99.90
16511;DHT22;8368;48.772;8.754;2023-03-02T09:56:49;3.70;99.90
16511;DHT22;8368;48.772;8.754;2023-03-02T10:01:51;3.90;99.90
16511;DHT22;8368;48.772;8.754;2023-03-02T10:04:21;3.90;99.90
16511;DHT22;8368;48.772;8.754;2023-03-02T10:06:55;4.00;99.90
16511;DHT22;8368;48.772;8.754;2023-03-02T10:09:20;4.20;99.90
16511;DHT22;8368;48.772;8.754;2023-03-02T10:12:07;4.20;99.90
16511;DHT22;8368;48.772;8.754;2023-03-02T10:14:56;4.50;99.90
16511;DHT22;8368;48.772;8.754;2023-03-02T10:17:55;4.60;99.90
16511;DHT22;8368;48.772;8.754;2023-03-02T10:20:35;4.70;99.90
16511;DHT22;8368;48.772;8.754;2023-03-02T10:23:36;4.70;99.90
16511;DHT22;8368;48.772;8.754;2023-03-02T10:26:12;4.80;99.90
16511;DHT22;8368;48.772;8.754;2023-03-02T10:28:47;4.80;99.90
16511;DHT22;8368;48.772;8.754;2023-03-02T10:31:31;4.70;99.90
16511;DHT22;8368;48.772;8.754;2023-03-02T10:33:59;4.70;99.90
16511;DHT22;8368;48.772;8.754;2023-03-02T10:36:30;4.80;99.90
16511;DHT22;8368;48.772;8.754;2023-03-02T10:38:57;5.00;99.90
16511;DHT22;8368;48.772;8.754;2023-03-02T10:41:30;4.90;99.90
16511;DHT22;8368;48.772;8.754;2023-03-02T10:44:23;4.80;99.90
16511;DHT22;8368;48.772;8.754;2023-03-02T10:46:47;4.70;99.90
16511;DHT22;8368;48.772;8.754;2023-03-02T10:49:26;4.70;99.90
16511;DHT22;8368;48.772;8.754;2023-03-02T10:54:22;4.50;99.90
16511;DHT22;8368;48.772;8.754;2023-03-02T10:56:52;4.50;99.90
16511;DHT22;8368;48.772;8.754;2023-03-02T11:02:01;4.50;99.90
16511;DHT22;8368;48.772;8.754;2023-03-02T11:04:28;4.70;99.90
16511;DHT22;8368;48.772;8.754;2023-03-02T11:06:54;4.50;99.90
16511;DHT22;8368;48.772;8.754;2023-03-02T11:09:19;4.60;99.90
16511;DHT22;8368;48.772;8.754;2023-03-02T11:11:53;4.70;99.90
16511;DHT22;8368;48.772;8.754;2023-03-02T11:14:19;4.80;99.90
16511;DHT22;8368;48.772;8.754;2023-03-02T11:16:49;4.80;99.90
16511;DHT22;8368;48.772;8.754;2023-03-02T11:19:34;5.00;99.90
16511;DHT22;8368;48.772;8.754;2023-03-02T11:22:35;4.90;99.90
16511;DHT22;8368;48.772;8.754;2023-03-02T11:25:07;5.10;99.90
16511;DHT22;8368;48.772;8.754;2023-03-02T11:27:39;4.80;99.90
16511;DHT22;8368;48.772;8.754;2023-03-02T11:30:12;5.00;99.90
16511;DHT22;8368;48.772;8.754;2023-03-02T11:33:06;5.10;99.90
16511;DHT22;8368;48.772;8.754;2023-03-02T11:35:35;5.00;99.90
16511;DHT22;8368;48.772;8.754;2023-03-02T11:38:16;5.10;99.90
16511;DHT22;8368;48.772;8.754;2023-03-02T11:40:56;5.30;99.90
16511;DHT22;8368;48.772;8.754;2023-03-02T11:43:23;5.50;99.90
16511;DHT22;8368;48.772;8.754;2023-03-02T11:46:03;5.30;99.90
16511;DHT22;8368;48.772;8.754;2023-03-02T11:48:37;5.20;99.90
16511;DHT22;8368;48.772;8.754;2023-03-02T11:51:10;5.20;99.90
16511;DHT22;8368;48.772;8.754;2023-03-02T11:53:50;5.40;99.90
16511;DHT22;8368;48.772;8.754;2023-03-02T11:56:17;5.40;99.90
16511;DHT22;8368;48.772;8.754;2023-03-02T11:58:55;5.40;99.90
16511;DHT22;8368;48.772;8.754;2023-03-02T12:01:24;5.50;99.90
16511;DHT22;8368;48.772;8.754;2023-03-02T12:03:50;5.70;99.90
16511;DHT22;8368;48.772;8.754;2023-03-02T12:06:24;5.60;99.90
16511;DHT22;8368;48.772;8.754;2023-03-02T12:09:25;5.50;99.90
16511;DHT22;8368;48.772;8.754;2023-03-02T12:12:16;5.70;99.90
16511;DHT22;8368;48.772;8.754;2023-03-02T12:14:49;5.80;99.90
16511;DHT22;8368;48.772;8.754;2023-03-02T12:17:21;5.90;99.90
16511;DHT22;8368;48.772;8.754;2023-03-02T12:22:35;5.80;99.90
16511;DHT22;8368;48.772;8.754;2023-03-02T12:27:50;6.00;99.90
16511;DHT22;8368;48.772;8.754;2023-03-02T12:35:30;5.80;99.90
16511;DHT22;8368;48.772;8.754;2023-03-02T12:37:59;5.80;99.90
16511;DHT22;8368;48.772;8.754;2023-03-02T12:40:39;5.60;99.90
16511;DHT22;8368;48.772;8.754;2023-03-02T12:43:33;5.50;99.90
16511;DHT22;8368;48.772;8.754;2023-03-02T12:54:42;5.30;99.90
16511;DHT22;8368;48.772;8.754;2023-03-02T12:57:19;5.40;99.90
16511;DHT22;8368;48.772;8.754;2023-03-02T12:59:56;5.40;99.90
16511;DHT22;8368;48.772;8.754;2023-03-02T13:02:34;5.50;99.90
16511;DHT22;8368;48.772;8.754;2023-03-02T13:05:06;5.50;99.90
16511;DHT22;8368;48.772;8.754;2023-03-02T13:07:42;5.50;99.90
16511;DHT22;8368;48.772;8.754;2023-03-02T13:10:38;5.60;99.90
16511;DHT22;8368;48.772;8.754;2023-03-02T13:13:20;5.70;99.90
16511;DHT22;8368;48.772;8.754;2023-03-02T13:15:50;5.80;99.90
16511;DHT22;8368;48.772;8.754;2023-03-02T13:18:17;6.00;99.90
16511;DHT22;8368;48.772;8.754;2023-03-02T13:20:43;5.80;99.90
16511;DHT22;8368;48.772;8.754;2023-03-02T13:23:12;5.80;99.90
16511;DHT22;8368;48.772;8.754;2023-03-02T13:25:56;5.90;99.90
16511;DHT22;8368;48.772;8.754;2023-03-02T13:28:32;6.60;99.90
16511;DHT22;8368;48.772;8.754;2023-03-02T13:31:04;7.60;99.90
16511;DHT22;8368;48.772;8.754;2023-03-02T13:33:31;8.40;99.90
16511;DHT22;8368;48.772;8.754;2023-03-02T13:35:57;9.00;99.90
16511;DHT22;8368;48.772;8.754;2023-03-02T13:39:14;9.20;99.90
16511;DHT22;8368;48.772;8.754;2023-03-02T13:41:20;9.50;99.90
16511;DHT22;8368;48.772;8.754;2023-03-02T13:43:46;9.80;99.90
16511;DHT22;8368;48.772;8.754;2023-03-02T13:48:37;10.20;99.90
16511;DHT22;8368;48.772;8.754;2023-03-02T13:51:17;10.20;99.90
16511;DHT22;8368;48.772;8.754;2023-03-02T13:54:02;9.90;99.90
16511;DHT22;8368;48.772;8.754;2023-03-02T13:56:37;9.80;99.90
16511;DHT22;8368;48.772;8.754;2023-03-02T13:59:12;10.00;99.90
16511;DHT22;8368;48.772;8.754;2023-03-02T14:01:38;9.30;99.90
16511;DHT22;8368;48.772;8.754;2023-03-02T14:04:07;8.90;99.90
16511;DHT22;8368;48.772;8.754;2023-03-02T14:06:35;8.70;99.90
16511;DHT22;8368;48.772;8.754;2023-03-02T14:09:00;8.70;99.90
16511;DHT22;8368;48.772;8.754;2023-03-02T14:11:35;8.60;99.90
16511;DHT22;8368;48.772;8.754;2023-03-02T14:14:01;8.50;99.90
16511;DHT22;8368;48.772;8.754;2023-03-02T14:16:28;8.50;99.90
16511;DHT22;8368;48.772;8.754;2023-03-02T14:18:54;8.30;99.90
16511;DHT22;8368;48.772;8.754;2023-03-02T14:21:24;7.90;99.90
16511;DHT22;8368;48.772;8.754;2023-03-02T14:23:51;7.50;99.90
16511;DHT22;8368;48.772;8.754;2023-03-02T14:28:51;7.10;99.90
16511;DHT22;8368;48.772;8.754;2023-03-02T14:31:17;7.10;99.90
16511;DHT22;8368;48.772;8.754;2023-03-02T14:33:44;6.90;99.90
16511;DHT22;8368;48.772;8.754;2023-03-02T14:36:13;6.90;99.90
16511;DHT22;8368;48.772;8.754;2023-03-02T14:38:39;6.90;99.90
16511;DHT22;8368;48.772;8.754;2023-03-02T14:41:04;6.80;99.90
16511;DHT22;8368;48.772;8.754;2023-03-02T14:43:30;6.90;99.90
16511;DHT22;8368;48.772;8.754;2023-03-02T14:45:55;6.80;99.90
16511;DHT22;8368;48.772;8.754;2023-03-02T14:48:21;6.80;99.90
16511;DHT22;8368;48.772;8.754;2023-03-02T14:50:48;6.80;99.90
16511;DHT22;8368;48.772;8.754;2023-03-02T14:53:27;6.80;99.90
16511;DHT22;8368;48.772;8.754;2023-03-02T14:55:54;6.80;99.90
16511;DHT22;8368;48.772;8.754;2023-03-02T14:58:29;6.80;99.90
16511;DHT22;8368;48.772;8.754;2023-03-02T15:00:55;6.80;99.90
16511;DHT22;8368;48.772;8.754;2023-03-02T15:03:21;6.80;99.90
16511;DHT22;8368;48.772;8.754;2023-03-02T15:05:50;6.80;99.90
16511;DHT22;8368;48.772;8.754;2023-03-02T15:08:16;6.90;99.90
16511;DHT22;8368;48.772;8.754;2023-03-02T15:10:42;6.90;99.90
16511;DHT22;8368;48.772;8.754;2023-03-02T15:13:11;6.80;99.90
16511;DHT22;8368;48.772;8.754;2023-03-02T15:15:39;6.80;99.90
16511;DHT22;8368;48.772;8.754;2023-03-02T15:18:05;6.70;99.90
16511;DHT22;8368;48.772;8.754;2023-03-02T15:20:31;6.70;99.90
16511;DHT22;8368;48.772;8.754;2023-03-02T15:22:57;6.70;99.90
16511;DHT22;8368;48.772;8.754;2023-03-02T15:25:22;6.60;99.90
16511;DHT22;8368;48.772;8.754;2023-03-02T15:27:50;6.60;99.90
16511;DHT22;8368;48.772;8.754;2023-03-02T15:30:16;6.50;99.90
16511;DHT22;8368;48.772;8.754;2023-03-02T15:32:42;6.50;99.90
16511;DHT22;8368;48.772;8.754;2023-03-02T15:35:08;6.50;99.90
16511;DHT22;8368;48.772;8.754;2023-03-02T15:37:34;6.50;99.90
16511;DHT22;8368;48.772;8.754;2023-03-02T15:39:59;6.40;99.90
16511;DHT22;8368;48.772;8.754;2023-03-02T15:42:25;6.40;99.90
16511;DHT22;8368;48.772;8.754;2023-03-02T15:44:50;6.40;99.90
16511;DHT22;8368;48.772;8.754;2023-03-02T15:47:16;6.40;99.90
16511;DHT22;8368;48.772;8.754;2023-03-02T15:49:42;6.40;99.90
16511;DHT22;8368;48.772;8.754;2023-03-02T15:52:08;6.30;99.90
16511;DHT22;8368;48.772;8.754;2023-03-02T15:54:34;6.30;99.90
16511;DHT22;8368;48.772;8.754;2023-03-02T15:57:00;6.30;99.90
16511;DHT22;8368;48.772;8.754;2023-03-02T15:59:27;6.30;99.90
16511;DHT22;8368;48.772;8.754;2023-03-02T16:01:53;6.30;99.90
16511;DHT22;8368;48.772;8.754;2023-03-02T16:04:27;6.30;99.90
16511;DHT22;8368;48.772;8.754;2023-03-02T16:06:53;6.30;99.90
16511;DHT22;8368;48.772;8.754;2023-03-02T16:09:19;6.30;99.90
16511;DHT22;8368;48.772;8.754;2023-03-02T16:11:45;6.20;99.90
16511;DHT22;8368;48.772;8.754;2023-03-02T16:14:12;6.20;99.90
16511;DHT22;8368;48.772;8.754;2023-03-02T16:16:43;6.10;99.90
16511;DHT22;8368;48.772;8.754;2023-03-02T16:19:10;6.10;99.90
16511;DHT22;8368;48.772;8.754;2023-03-02T16:21:36;6.10;99.90
16511;DHT22;8368;48.772;8.754;2023-03-02T16:24:02;6.00;99.90
16511;DHT22;8368;48.772;8.754;2023-03-02T16:26:33;6.00;99.90
16511;DHT22;8368;48.772;8.754;2023-03-02T16:28:59;5.90;99.90
16511;DHT22;8368;48.772;8.754;2023-03-02T16:31:26;5.80;99.90
16511;DHT22;8368;48.772;8.754;2023-03-02T16:33:55;5.80;99.90
16511;DHT22;8368;48.772;8.754;2023-03-02T16:36:22;5.80;99.90
16511;DHT22;8368;48.772;8.754;2023-03-02T16:38:48;5.70;99.90
16511;DHT22;8368;48.772;8.754;2023-03-02T16:41:16;5.70;99.90
16511;DHT22;8368;48.772;8.754;2023-03-02T16:43:47;5.60;99.90
16511;DHT22;8368;48.772;8.754;2023-03-02T16:46:14;5.50;99.90
16511;DHT22;8368;48.772;8.754;2023-03-02T16:48:40;5.50;99.90
16511;DHT22;8368;48.772;8.754;2023-03-02T16:51:05;5.40;99.90
16511;DHT22;8368;48.772;8.754;2023-03-02T16:53:31;5.20;99.90